sensor_id;sensor_type;location;lat;lon;timestamp;pressure;altitude;pressure_sealevel;temperature;humidity
65329;BME280;51941;52.210;5.158;2023-02-10T00:00:15;103491.09;;;0.56;88.11
65329;BME280;51941;52.210;5.158;2023-02-10T00:02:42;103487.66;;;0.55;88.22
65329;BME280;51941;52.210;5.158;2023-02-10T00:05:10;103489.44;;;0.55;88.24
65329;BME280;51941;52.210;5.158;2023-02-10T00:07:37;103486.81;;;0.55;88.30
65329;BME280;51941;52.210;5.158;2023-02-10T00:10:04;103486.81;;;0.55;87.83
65329;BME280;51941;52.210;5.158;2023-02-10T00:12:31;103483.28;;;0.56;88.22
65329;BME280;51941;52.210;5.158;2023-02-10T00:14:58;103481.53;;;0.56;87.97
65329;BME280;51941;52.210;5.158;2023-02-10T00:17:25;103464.31;;;0.54;88.32
65329;BME280;51941;52.210;5.158;2023-02-10T00:19:51;103468.78;;;0.51;88.24
65329;BME280;51941;52.210;5.158;2023-02-10T00:22:20;103478.25;;;0.52;88.27
65329;BME280;51941;52.210;5.158;2023-02-10T00:24:46;103482.66;;;0.52;88.34
65329;BME280;51941;52.210;5.158;2023-02-10T00:27:13;103486.19;;;0.51;87.97
65329;BME280;51941;52.210;5.158;2023-02-10T00:29:40;103483.56;;;0.51;88.26
65329;BME280;51941;52.210;5.158;2023-02-10T00:32:07;103480.44;;;0.46;88.00
65329;BME280;51941;52.210;5.158;2023-02-10T00:34:38;103481.28;;;0.46;88.41
65329;BME280;51941;52.210;5.158;2023-02-10T00:37:05;103482.31;;;0.44;88.42
65329;BME280;51941;52.210;5.158;2023-02-10T00:39:34;103478.97;;;0.42;88.30
65329;BME280;51941;52.210;5.158;2023-02-10T00:42:00;103487.72;;;0.41;88.61
65329;BME280;51941;52.210;5.158;2023-02-10T00:44:27;103485.31;;;0.38;88.58
65329;BME280;51941;52.210;5.158;2023-02-10T00:46:55;103490.53;;;0.38;88.81
65329;BME280;51941;52.210;5.158;2023-02-10T00:49:22;103483.75;;;0.35;88.69
65329;BME280;51941;52.210;5.158;2023-02-10T00:51:48;103488.19;;;0.33;88.71
65329;BME280;51941;52.210;5.158;2023-02-10T00:54:15;103479.69;;;0.31;88.83
65329;BME280;51941;52.210;5.158;2023-02-10T00:56:45;103474.66;;;0.28;88.75
65329;BME280;51941;52.210;5.158;2023-02-10T00:59:12;103451.56;;;0.09;88.89
65329;BME280;51941;52.210;5.158;2023-02-10T01:01:41;103473.81;;;0.28;88.91
65329;BME280;51941;52.210;5.158;2023-02-10T01:04:07;103485.06;;;0.28;88.88
65329;BME280;51941;52.210;5.158;2023-02-10T01:06:34;103488.31;;;0.32;88.63
65329;BME280;51941;52.210;5.158;2023-02-10T01:09:01;103494.34;;;0.32;88.78
65329;BME280;51941;52.210;5.158;2023-02-10T01:11:28;103496.84;;;0.34;88.73
65329;BME280;51941;52.210;5.158;2023-02-10T01:13:56;103488.41;;;0.30;89.03
65329;BME280;51941;52.210;5.158;2023-02-10T01:16:23;103492.56;;;0.33;88.92
65329;BME280;51941;52.210;5.158;2023-02-10T01:18:50;103496.94;;;0.32;89.10
65329;BME280;51941;52.210;5.158;2023-02-10T01:21:19;103497.44;;;0.25;88.93
65329;BME280;51941;52.210;5.158;2023-02-10T01:23:46;103512.50;;;0.34;88.95
65329;BME280;51941;52.210;5.158;2023-02-10T01:26:14;103509.88;;;0.34;88.90
65329;BME280;51941;52.210;5.158;2023-02-10T01:28:41;103507.09;;;0.37;88.70
65329;BME280;51941;52.210;5.158;2023-02-10T01:31:13;103511.28;;;0.39;88.58
65329;BME280;51941;52.210;5.158;2023-02-10T01:33:40;103488.41;;;0.30;88.83
65329;BME280;51941;52.210;5.158;2023-02-10T01:36:10;103507.25;;;0.48;88.84
65329;BME280;51941;52.210;5.158;2023-02-10T01:38:37;103508.78;;;0.50;89.07
65329;BME280;51941;52.210;5.158;2023-02-10T01:41:05;103495.44;;;0.42;89.07
65329;BME280;51941;52.210;5.158;2023-02-10T01:43:32;103505.25;;;0.51;89.02
65329;BME280;51941;52.210;5.158;2023-02-10T01:45:59;103445.59;;;0.07;89.20
65329;BME280;51941;52.210;5.158;2023-02-10T01:48:28;103522.88;;;0.48;89.22
65329;BME280;51941;52.210;5.158;2023-02-10T01:50:58;103513.56;;;0.44;89.44
65329;BME280;51941;52.210;5.158;2023-02-10T01:53:28;103514.50;;;0.43;89.55
65329;BME280;51941;52.210;5.158;2023-02-10T01:55:57;103513.06;;;0.39;89.33
65329;BME280;51941;52.210;5.158;2023-02-10T01:58:26;103509.78;;;0.35;89.61
65329;BME280;51941;52.210;5.158;2023-02-10T02:00:55;103507.50;;;0.31;89.67
65329;BME280;51941;52.210;5.158;2023-02-10T02:03:23;103509.63;;;0.24;89.64
65329;BME280;51941;52.210;5.158;2023-02-10T02:05:52;103509.94;;;0.20;89.64
65329;BME280;51941;52.210;5.158;2023-02-10T02:08:23;103508.44;;;0.16;89.72
65329;BME280;51941;52.210;5.158;2023-02-10T02:10:57;103472.72;;;-0.09;89.64
65329;BME280;51941;52.210;5.158;2023-02-10T02:13:47;103515.72;;;0.10;89.59
65329;BME280;51941;52.210;5.158;2023-02-10T02:16:27;103510.69;;;0.07;89.68
65329;BME280;51941;52.210;5.158;2023-02-10T02:19:01;103470.59;;;-0.17;89.42
65329;BME280;51941;52.210;5.158;2023-02-10T02:21:57;103511.00;;;0.03;89.41
65329;BME280;51941;52.210;5.158;2023-02-10T02:24:43;103511.09;;;0.01;89.65
65329;BME280;51941;52.210;5.158;2023-02-10T02:27:35;103514.63;;;0.00;89.80
65329;BME280;51941;52.210;5.158;2023-02-10T02:30:36;103512.94;;;-0.01;89.67
65329;BME280;51941;52.210;5.158;2023-02-10T02:33:14;103518.16;;;-0.01;89.67
65329;BME280;51941;52.210;5.158;2023-02-10T02:35:48;103505.56;;;-0.21;89.88
65329;BME280;51941;52.210;5.158;2023-02-10T02:38:16;103528.78;;;-0.04;89.79
65329;BME280;51941;52.210;5.158;2023-02-10T02:40:43;103530.66;;;-0.06;89.73
65329;BME280;51941;52.210;5.158;2023-02-10T02:43:10;103525.69;;;-0.10;89.90
65329;BME280;51941;52.210;5.158;2023-02-10T02:45:45;103529.22;;;-0.11;89.73
65329;BME280;51941;52.210;5.158;2023-02-10T02:48:29;103529.44;;;-0.14;89.72
65329;BME280;51941;52.210;5.158;2023-02-10T02:51:04;103474.25;;;-0.48;89.56
65329;BME280;51941;52.210;5.158;2023-02-10T02:53:38;103529.44;;;-0.14;89.54
65329;BME280;51941;52.210;5.158;2023-02-10T02:56:15;103526.94;;;-0.16;89.70
65329;BME280;51941;52.210;5.158;2023-02-10T02:58:52;103527.03;;;-0.17;89.66
65329;BME280;51941;52.210;5.158;2023-02-10T03:01:23;103526.19;;;-0.18;89.62
65329;BME280;51941;52.210;5.158;2023-02-10T03:03:54;103529.78;;;-0.20;89.56
65329;BME280;51941;52.210;5.158;2023-02-10T03:06:23;103530.00;;;-0.23;89.78
65329;BME280;51941;52.210;5.158;2023-02-10T03:08:50;103497.69;;;-0.48;89.84
65329;BME280;51941;52.210;5.158;2023-02-10T03:11:17;103518.47;;;-0.34;89.87
65329;BME280;51941;52.210;5.158;2023-02-10T03:13:44;103522.66;;;-0.31;89.93
65329;BME280;51941;52.210;5.158;2023-02-10T03:16:11;103519.16;;;-0.30;89.80
65329;BME280;51941;52.210;5.158;2023-02-10T03:18:38;103516.53;;;-0.30;89.72
65329;BME280;51941;52.210;5.158;2023-02-10T03:21:06;103485.78;;;-0.52;89.67
65329;BME280;51941;52.210;5.158;2023-02-10T03:23:33;103486.69;;;-0.53;89.80
65329;BME280;51941;52.210;5.158;2023-02-10T03:26:00;103519.03;;;-0.29;89.97
65329;BME280;51941;52.210;5.158;2023-02-10T03:28:27;103518.09;;;-0.28;89.90
65329;BME280;51941;52.210;5.158;2023-02-10T03:30:54;103519.03;;;-0.29;89.84
65329;BME280;51941;52.210;5.158;2023-02-10T03:33:22;103494.13;;;-0.47;89.80
65329;BME280;51941;52.210;5.158;2023-02-10T03:35:50;103527.50;;;-0.25;89.88
65329;BME280;51941;52.210;5.158;2023-02-10T03:38:18;103529.16;;;-0.24;89.88
65329;BME280;51941;52.210;5.158;2023-02-10T03:40:48;103490.81;;;-0.49;89.69
65329;BME280;51941;52.210;5.158;2023-02-10T03:43:16;103530.75;;;-0.21;90.11
65329;BME280;51941;52.210;5.158;2023-02-10T03:45:43;103532.41;;;-0.20;90.10
65329;BME280;51941;52.210;5.158;2023-02-10T03:48:09;103532.22;;;-0.17;89.74
65329;BME280;51941;52.210;5.158;2023-02-10T03:50:36;103538.00;;;-0.12;89.71
65329;BME280;51941;52.210;5.158;2023-02-10T03:53:03;103535.94;;;-0.07;89.66
65329;BME280;51941;52.210;5.158;2023-02-10T03:55:32;103524.03;;;-0.11;89.65
65329;BME280;51941;52.210;5.158;2023-02-10T03:57:59;103526.06;;;-0.02;89.64
65329;BME280;51941;52.210;5.158;2023-02-10T04:00:27;103526.63;;;0.03;89.50
65329;BME280;51941;52.210;5.158;2023-02-10T04:02:54;103525.41;;;0.08;89.44
65329;BME280;51941;52.210;5.158;2023-02-10T04:05:20;103524.38;;;0.11;89.45
65329;BME280;51941;52.210;5.158;2023-02-10T04:07:47;103528.84;;;0.09;89.48
65329;BME280;51941;52.210;5.158;2023-02-10T04:10:14;103502.75;;;-0.04;89.45
65329;BME280;51941;52.210;5.158;2023-02-10T04:12:42;103519.25;;;0.09;89.47
65329;BME280;51941;52.210;5.158;2023-02-10T04:15:09;103542.22;;;0.17;89.28
65329;BME280;51941;52.210;5.158;2023-02-10T04:17:36;103545.75;;;0.16;89.59
65329;BME280;51941;52.210;5.158;2023-02-10T04:20:03;103545.66;;;0.18;89.51
65329;BME280;51941;52.210;5.158;2023-02-10T04:22:30;103543.81;;;0.20;89.63
65329;BME280;51941;52.210;5.158;2023-02-10T04:24:57;103544.63;;;0.20;89.67
65329;BME280;51941;52.210;5.158;2023-02-10T04:27:24;103544.63;;;0.20;89.84
65329;BME280;51941;52.210;5.158;2023-02-10T04:29:52;103552.34;;;0.22;89.85
65329;BME280;51941;52.210;5.158;2023-02-10T04:32:19;103548.00;;;0.22;89.90
65329;BME280;51941;52.210;5.158;2023-02-10T04:34:46;103488.72;;;-0.15;89.76
65329;BME280;51941;52.210;5.158;2023-02-10T04:37:13;103547.78;;;0.25;89.77
65329;BME280;51941;52.210;5.158;2023-02-10T04:39:40;103538.59;;;0.20;90.06
65329;BME280;51941;52.210;5.158;2023-02-10T04:42:06;103541.19;;;0.20;90.12
65329;BME280;51941;52.210;5.158;2023-02-10T04:44:34;103536.72;;;0.22;90.08
65329;BME280;51941;52.210;5.158;2023-02-10T04:47:02;103525.75;;;0.17;89.82
65329;BME280;51941;52.210;5.158;2023-02-10T04:49:29;103527.34;;;0.19;89.66
65329;BME280;51941;52.210;5.158;2023-02-10T04:51:56;103529.09;;;0.19;89.90
65329;BME280;51941;52.210;5.158;2023-02-10T04:54:23;103524.72;;;0.19;89.77
65329;BME280;51941;52.210;5.158;2023-02-10T04:56:50;103518.59;;;0.20;89.87
65329;BME280;51941;52.210;5.158;2023-02-10T04:59:16;103525.47;;;0.21;89.72
65329;BME280;51941;52.210;5.158;2023-02-10T05:01:43;103533.28;;;0.21;89.63
65329;BME280;51941;52.210;5.158;2023-02-10T05:04:11;103528.91;;;0.22;90.06
65329;BME280;51941;52.210;5.158;2023-02-10T05:06:38;103539.22;;;0.23;90.08
65329;BME280;51941;52.210;5.158;2023-02-10T05:09:05;103534.75;;;0.25;90.00
65329;BME280;51941;52.210;5.158;2023-02-10T05:11:32;103531.22;;;0.26;89.92
65329;BME280;51941;52.210;5.158;2023-02-10T05:13:58;103531.03;;;0.29;89.88
65329;BME280;51941;52.210;5.158;2023-02-10T05:16:25;103532.63;;;0.32;89.90
65329;BME280;51941;52.210;5.158;2023-02-10T05:18:52;103530.81;;;0.32;89.82
65329;BME280;51941;52.210;5.158;2023-02-10T05:21:20;103530.63;;;0.35;89.83
65329;BME280;51941;52.210;5.158;2023-02-10T05:23:51;103520.63;;;0.29;89.91
65329;BME280;51941;52.210;5.158;2023-02-10T05:26:18;103535.66;;;0.38;89.96
65329;BME280;51941;52.210;5.158;2023-02-10T05:28:44;103534.72;;;0.39;89.79
65329;BME280;51941;52.210;5.158;2023-02-10T05:31:11;103534.72;;;0.39;89.80
65329;BME280;51941;52.210;5.158;2023-02-10T05:33:38;103530.34;;;0.40;90.19
65329;BME280;51941;52.210;5.158;2023-02-10T05:36:06;103534.59;;;0.41;89.57
65329;BME280;51941;52.210;5.158;2023-02-10T05:38:34;103540.78;;;0.40;89.77
65329;BME280;51941;52.210;5.158;2023-02-10T05:41:01;103531.06;;;0.42;89.77
65329;BME280;51941;52.210;5.158;2023-02-10T05:43:27;103528.38;;;0.43;89.88
65329;BME280;51941;52.210;5.158;2023-02-10T05:45:54;103527.44;;;0.44;89.66
65329;BME280;51941;52.210;5.158;2023-02-10T05:48:21;103523.81;;;0.47;89.91
65329;BME280;51941;52.210;5.158;2023-02-10T05:50:49;103501.44;;;0.30;90.07
65329;BME280;51941;52.210;5.158;2023-02-10T05:53:17;103534.41;;;0.44;89.66
65329;BME280;51941;52.210;5.158;2023-02-10T05:55:46;103530.97;;;0.43;89.86
65329;BME280;51941;52.210;5.158;2023-02-10T05:58:13;103501.63;;;0.27;89.88
65329;BME280;51941;52.210;5.158;2023-02-10T06:00:40;103525.97;;;0.40;89.89
65329;BME280;51941;52.210;5.158;2023-02-10T06:03:07;103537.97;;;0.43;90.03
65329;BME280;51941;52.210;5.158;2023-02-10T06:05:33;103531.91;;;0.42;90.21
65329;BME280;51941;52.210;5.158;2023-02-10T06:08:00;103536.28;;;0.42;90.28
65329;BME280;51941;52.210;5.158;2023-02-10T06:10:27;103544.09;;;0.42;90.32
65329;BME280;51941;52.210;5.158;2023-02-10T06:12:55;103513.28;;;0.22;90.06
65329;BME280;51941;52.210;5.158;2023-02-10T06:15:22;103546.81;;;0.40;90.25
65329;BME280;51941;52.210;5.158;2023-02-10T06:17:49;103504.28;;;0.13;90.02
65329;BME280;51941;52.210;5.158;2023-02-10T06:20:16;103554.53;;;0.42;90.22
65329;BME280;51941;52.210;5.158;2023-02-10T06:22:42;103553.69;;;0.41;90.45
65329;BME280;51941;52.210;5.158;2023-02-10T06:25:09;103554.66;;;0.40;90.59
65329;BME280;51941;52.210;5.158;2023-02-10T06:27:36;103548.59;;;0.40;90.65
65329;BME280;51941;52.210;5.158;2023-02-10T06:30:05;103553.69;;;0.41;90.29
65329;BME280;51941;52.210;5.158;2023-02-10T06:32:32;103545.88;;;0.41;90.55
65329;BME280;51941;52.210;5.158;2023-02-10T06:34:59;103550.06;;;0.44;90.55
65329;BME280;51941;52.210;5.158;2023-02-10T06:37:26;103551.63;;;0.46;90.45
65329;BME280;51941;52.210;5.158;2023-02-10T06:39:53;103564.56;;;0.48;90.30
65329;BME280;51941;52.210;5.158;2023-02-10T06:42:19;103562.69;;;0.50;90.19
65329;BME280;51941;52.210;5.158;2023-02-10T06:44:46;103557.38;;;0.51;90.51
65329;BME280;51941;52.210;5.158;2023-02-10T06:47:14;103521.63;;;0.27;90.56
65329;BME280;51941;52.210;5.158;2023-02-10T06:49:41;103563.25;;;0.55;90.69
65329;BME280;51941;52.210;5.158;2023-02-10T06:52:08;103562.31;;;0.56;90.92
65329;BME280;51941;52.210;5.158;2023-02-10T06:54:35;103561.25;;;0.59;90.97
65329;BME280;51941;52.210;5.158;2023-02-10T06:57:01;103567.97;;;0.63;91.18
65329;BME280;51941;52.210;5.158;2023-02-10T06:59:28;103565.44;;;0.61;91.35
65329;BME280;51941;52.210;5.158;2023-02-10T07:01:55;103556.50;;;0.65;91.59
65329;BME280;51941;52.210;5.158;2023-02-10T07:04:27;103560.28;;;0.74;91.39
65329;BME280;51941;52.210;5.158;2023-02-10T07:06:54;103556.75;;;0.75;91.72
65329;BME280;51941;52.210;5.158;2023-02-10T07:09:21;103565.09;;;0.80;91.63
65329;BME280;51941;52.210;5.158;2023-02-10T07:11:48;103520.72;;;0.55;91.79
65329;BME280;51941;52.210;5.158;2023-02-10T07:14:15;103561.91;;;0.89;91.74
65329;BME280;51941;52.210;5.158;2023-02-10T07:16:42;103530.13;;;0.70;91.66
65329;BME280;51941;52.210;5.158;2023-02-10T07:19:09;103574.84;;;1.03;91.83
65329;BME280;51941;52.210;5.158;2023-02-10T07:21:37;103462.72;;;0.38;91.97
65329;BME280;51941;52.210;5.158;2023-02-10T07:24:04;103571.44;;;1.15;92.39
65329;BME280;51941;52.210;5.158;2023-02-10T07:26:31;103574.06;;;1.15;92.86
65329;BME280;51941;52.210;5.158;2023-02-10T07:28:58;103586.78;;;1.20;93.06
65329;BME280;51941;52.210;5.158;2023-02-10T07:31:25;103599.44;;;1.26;93.30
65329;BME280;51941;52.210;5.158;2023-02-10T07:33:52;103605.06;;;1.33;93.15
65329;BME280;51941;52.210;5.158;2023-02-10T07:36:18;103598.28;;;1.30;93.61
65329;BME280;51941;52.210;5.158;2023-02-10T07:38:47;103594.97;;;1.41;93.27
65329;BME280;51941;52.210;5.158;2023-02-10T07:41:13;103603.34;;;1.46;93.29
65329;BME280;51941;52.210;5.158;2023-02-10T07:43:40;103615.22;;;1.50;93.20
65329;BME280;51941;52.210;5.158;2023-02-10T07:46:13;103614.38;;;1.49;93.36
65329;BME280;51941;52.210;5.158;2023-02-10T07:48:40;103610.94;;;1.49;93.54
65329;BME280;51941;52.210;5.158;2023-02-10T07:51:07;103603.94;;;1.49;93.10
65329;BME280;51941;52.210;5.158;2023-02-10T07:53:34;103602.06;;;1.51;93.14
65329;BME280;51941;52.210;5.158;2023-02-10T07:56:04;103587.13;;;1.41;93.03
65329;BME280;51941;52.210;5.158;2023-02-10T07:58:31;103602.16;;;1.50;93.18
65329;BME280;51941;52.210;5.158;2023-02-10T08:00:58;103617.72;;;1.51;93.02
65329;BME280;51941;52.210;5.158;2023-02-10T08:03:25;103582.00;;;1.39;93.29
65329;BME280;51941;52.210;5.158;2023-02-10T08:05:52;103605.31;;;1.55;93.35
65329;BME280;51941;52.210;5.158;2023-02-10T08:08:18;103592.28;;;1.55;93.18
65329;BME280;51941;52.210;5.158;2023-02-10T08:10:45;103610.97;;;1.61;93.30
65329;BME280;51941;52.210;5.158;2023-02-10T08:13:13;103604.91;;;1.61;93.26
65329;BME280;51941;52.210;5.158;2023-02-10T08:15:40;103607.28;;;1.64;93.54
65329;BME280;51941;52.210;5.158;2023-02-10T08:18:07;103604.28;;;1.70;93.63
65329;BME280;51941;52.210;5.158;2023-02-10T08:20:34;103606.34;;;1.78;93.73
65329;BME280;51941;52.210;5.158;2023-02-10T08:23:00;103606.75;;;1.84;93.65
65329;BME280;51941;52.210;5.158;2023-02-10T08:25:27;103490.25;;;1.20;93.61
65329;BME280;51941;52.210;5.158;2023-02-10T08:27:54;103604.16;;;1.97;93.62
65329;BME280;51941;52.210;5.158;2023-02-10T08:30:23;103598.84;;;1.98;93.57
65329;BME280;51941;52.210;5.158;2023-02-10T08:32:51;103604.34;;;2.07;93.56
65329;BME280;51941;52.210;5.158;2023-02-10T08:35:17;103610.28;;;2.09;93.54
65329;BME280;51941;52.210;5.158;2023-02-10T08:37:44;103605.59;;;2.14;93.39
65329;BME280;51941;52.210;5.158;2023-02-10T08:40:11;103604.22;;;2.21;93.30
65329;BME280;51941;52.210;5.158;2023-02-10T08:42:38;103604.72;;;2.26;93.28
65329;BME280;51941;52.210;5.158;2023-02-10T08:45:05;103607.00;;;2.30;93.04
65329;BME280;51941;52.210;5.158;2023-02-10T08:47:34;103611.91;;;2.35;93.03
65329;BME280;51941;52.210;5.158;2023-02-10T08:50:00;103622.03;;;2.39;92.74
65329;BME280;51941;52.210;5.158;2023-02-10T08:52:28;103610.75;;;2.39;92.77
65329;BME280;51941;52.210;5.158;2023-02-10T08:54:54;103610.41;;;2.44;92.72
65329;BME280;51941;52.210;5.158;2023-02-10T08:57:22;103621.41;;;2.49;92.67
65329;BME280;51941;52.210;5.158;2023-02-10T08:59:49;103627.13;;;2.54;92.46
65329;BME280;51941;52.210;5.158;2023-02-10T09:02:16;103632.97;;;2.57;92.54
65329;BME280;51941;52.210;5.158;2023-02-10T09:04:44;103633.56;;;2.61;92.45
65329;BME280;51941;52.210;5.158;2023-02-10T09:07:11;103624.56;;;2.65;92.23
65329;BME280;51941;52.210;5.158;2023-02-10T09:09:40;103632.06;;;2.69;92.17
65329;BME280;51941;52.210;5.158;2023-02-10T09:12:09;103634.38;;;2.74;92.04
65329;BME280;51941;52.210;5.158;2023-02-10T09:14:37;103627.91;;;2.67;92.05
65329;BME280;51941;52.210;5.158;2023-02-10T09:17:03;103629.53;;;2.81;92.01
65329;BME280;51941;52.210;5.158;2023-02-10T09:19:33;103637.75;;;2.87;91.71
65329;BME280;51941;52.210;5.158;2023-02-10T09:22:01;103638.06;;;2.95;91.63
65329;BME280;51941;52.210;5.158;2023-02-10T09:24:28;103583.94;;;2.72;91.48
65329;BME280;51941;52.210;5.158;2023-02-10T09:26:55;103635.03;;;3.12;91.70
65329;BME280;51941;52.210;5.158;2023-02-10T09:29:22;103640.28;;;3.24;91.34
65329;BME280;51941;52.210;5.158;2023-02-10T09:31:49;103636.16;;;3.32;91.47
65329;BME280;51941;52.210;5.158;2023-02-10T09:34:16;103633.81;;;3.40;91.33
65329;BME280;51941;52.210;5.158;2023-02-10T09:36:43;103624.94;;;3.54;91.07
65329;BME280;51941;52.210;5.158;2023-02-10T09:39:11;103633.75;;;3.64;91.08
65329;BME280;51941;52.210;5.158;2023-02-10T09:41:44;103635.19;;;3.68;90.59
65329;BME280;51941;52.210;5.158;2023-02-10T09:44:16;103637.94;;;3.78;90.55
65329;BME280;51941;52.210;5.158;2023-02-10T09:47:06;103636.75;;;3.82;90.46
65329;BME280;51941;52.210;5.158;2023-02-10T09:50:03;103625.91;;;3.86;90.26
65329;BME280;51941;52.210;5.158;2023-02-10T09:52:43;103623.66;;;3.93;90.06
65329;BME280;51941;52.210;5.158;2023-02-10T09:55:20;103626.88;;;3.97;89.81
65329;BME280;51941;52.210;5.158;2023-02-10T09:57:52;103622.09;;;4.02;89.45
65329;BME280;51941;52.210;5.158;2023-02-10T10:00:25;103612.44;;;4.02;89.48
65329;BME280;51941;52.210;5.158;2023-02-10T10:02:54;103626.78;;;4.09;89.41
65329;BME280;51941;52.210;5.158;2023-02-10T10:05:33;103634.75;;;4.19;89.15
65329;BME280;51941;52.210;5.158;2023-02-10T10:08:07;103628.19;;;4.24;88.97
65329;BME280;51941;52.210;5.158;2023-02-10T10:10:42;103631.97;;;4.32;89.00
65329;BME280;51941;52.210;5.158;2023-02-10T10:13:13;103618.97;;;4.30;89.02
65329;BME280;51941;52.210;5.158;2023-02-10T10:15:46;103629.22;;;4.44;88.76
65329;BME280;51941;52.210;5.158;2023-02-10T10:18:21;103628.03;;;4.48;88.58
65329;BME280;51941;52.210;5.158;2023-02-10T10:20:56;103624.78;;;4.56;88.51
65329;BME280;51941;52.210;5.158;2023-02-10T10:23:36;103617.97;;;4.64;88.48
65329;BME280;51941;52.210;5.158;2023-02-10T10:26:17;103579.03;;;4.49;88.11
65329;BME280;51941;52.210;5.158;2023-02-10T10:28:59;103617.69;;;4.79;88.07
65329;BME280;51941;52.210;5.158;2023-02-10T10:31:30;103613.03;;;4.82;87.98
65329;BME280;51941;52.210;5.158;2023-02-10T10:34:00;103614.28;;;4.99;87.88
65329;BME280;51941;52.210;5.158;2023-02-10T10:36:33;103621.56;;;5.07;87.61
65329;BME280;51941;52.210;5.158;2023-02-10T10:39:06;103627.13;;;5.13;87.63
65329;BME280;51941;52.210;5.158;2023-02-10T10:41:38;103627.47;;;5.20;87.15
65329;BME280;51941;52.210;5.158;2023-02-10T10:44:05;103617.97;;;5.28;87.21
65329;BME280;51941;52.210;5.158;2023-02-10T10:46:35;103621.03;;;5.33;86.94
65329;BME280;51941;52.210;5.158;2023-02-10T10:49:05;103584.72;;;5.18;86.92
65329;BME280;51941;52.210;5.158;2023-02-10T10:51:32;103617.94;;;5.39;86.24
65329;BME280;51941;52.210;5.158;2023-02-10T10:54:00;103557.31;;;5.11;86.44
65329;BME280;51941;52.210;5.158;2023-02-10T10:56:33;103614.41;;;5.50;85.97
65329;BME280;51941;52.210;5.158;2023-02-10T10:59:03;103609.59;;;5.55;85.89
65329;BME280;51941;52.210;5.158;2023-02-10T11:01:38;103571.03;;;5.35;85.93
65329;BME280;51941;52.210;5.158;2023-02-10T11:04:06;103569.53;;;5.42;85.48
65329;BME280;51941;52.210;5.158;2023-02-10T11:06:37;103607.63;;;5.78;85.64
65329;BME280;51941;52.210;5.158;2023-02-10T11:09:13;103600.44;;;5.80;84.51
65329;BME280;51941;52.210;5.158;2023-02-10T11:11:43;103606.69;;;5.89;84.48
65329;BME280;51941;52.210;5.158;2023-02-10T11:14:15;103578.31;;;5.83;84.58
65329;BME280;51941;52.210;5.158;2023-02-10T11:16:44;103615.09;;;6.03;84.46
65329;BME280;51941;52.210;5.158;2023-02-10T11:19:20;103601.28;;;6.11;84.06
65329;BME280;51941;52.210;5.158;2023-02-10T11:21:48;103597.38;;;6.15;83.48
65329;BME280;51941;52.210;5.158;2023-02-10T11:24:18;103597.97;;;6.18;83.09
65329;BME280;51941;52.210;5.158;2023-02-10T11:26:53;103587.00;;;6.13;81.61
65329;BME280;51941;52.210;5.158;2023-02-10T11:29:21;103555.03;;;6.08;82.12
65329;BME280;51941;52.210;5.158;2023-02-10T11:31:50;103584.28;;;6.34;82.62
65329;BME280;51941;52.210;5.158;2023-02-10T11:34:20;103566.84;;;6.33;82.11
65329;BME280;51941;52.210;5.158;2023-02-10T11:36:48;103570.31;;;6.34;80.71
65329;BME280;51941;52.210;5.158;2023-02-10T11:39:20;103557.16;;;6.43;80.71
65329;BME280;51941;52.210;5.158;2023-02-10T11:41:49;103569.91;;;6.48;80.01
65329;BME280;51941;52.210;5.158;2023-02-10T11:44:29;103573.69;;;6.55;80.43
65329;BME280;51941;52.210;5.158;2023-02-10T11:46:58;103581.28;;;6.58;80.23
65329;BME280;51941;52.210;5.158;2023-02-10T11:49:26;103585.00;;;6.65;79.00
65329;BME280;51941;52.210;5.158;2023-02-10T11:51:58;103515.22;;;6.42;80.18
65329;BME280;51941;52.210;5.158;2023-02-10T11:54:26;103562.16;;;6.85;80.69
65329;BME280;51941;52.210;5.158;2023-02-10T11:57:03;103559.78;;;7.01;80.38
65329;BME280;51941;52.210;5.158;2023-02-10T12:00:02;103546.72;;;7.19;80.53
65329;BME280;51941;52.210;5.158;2023-02-10T12:02:51;103546.31;;;7.23;78.66
65329;BME280;51941;52.210;5.158;2023-02-10T12:05:25;103548.41;;;7.10;75.99
65329;BME280;51941;52.210;5.158;2023-02-10T12:08:04;103564.50;;;7.26;75.61
65329;BME280;51941;52.210;5.158;2023-02-10T12:10:39;103548.00;;;7.24;75.15
65329;BME280;51941;52.210;5.158;2023-02-10T12:13:15;103565.28;;;7.46;75.00
65329;BME280;51941;52.210;5.158;2023-02-10T12:15:51;103564.00;;;7.60;75.02
65329;BME280;51941;52.210;5.158;2023-02-10T12:18:29;103574.63;;;7.78;75.65
65329;BME280;51941;52.210;5.158;2023-02-10T12:21:13;103566.38;;;7.90;75.60
65329;BME280;51941;52.210;5.158;2023-02-10T12:23:56;103568.81;;;8.01;74.72
65329;BME280;51941;52.210;5.158;2023-02-10T12:26:29;103570.66;;;8.19;74.97
65329;BME280;51941;52.210;5.158;2023-02-10T12:29:11;103561.16;;;8.26;74.49
65329;BME280;51941;52.210;5.158;2023-02-10T12:31:50;103553.72;;;8.39;74.11
65329;BME280;51941;52.210;5.158;2023-02-10T12:34:44;103552.28;;;8.44;72.67
65329;BME280;51941;52.210;5.158;2023-02-10T12:37:23;103551.53;;;8.52;71.80
65329;BME280;51941;52.210;5.158;2023-02-10T12:40:17;103536.91;;;8.40;73.33
65329;BME280;51941;52.210;5.158;2023-02-10T12:42:54;103559.53;;;8.60;73.32
65329;BME280;51941;52.210;5.158;2023-02-10T12:45:28;103548.47;;;8.57;73.09
65329;BME280;51941;52.210;5.158;2023-02-10T12:48:09;103544.59;;;8.51;72.14
65329;BME280;51941;52.210;5.158;2023-02-10T12:50:47;103534.28;;;8.40;71.51
65329;BME280;51941;52.210;5.158;2023-02-10T12:53:23;103540.06;;;8.43;72.74
65329;BME280;51941;52.210;5.158;2023-02-10T12:55:54;103538.88;;;8.38;72.64
65329;BME280;51941;52.210;5.158;2023-02-10T12:58:26;103542.19;;;8.40;72.56
65329;BME280;51941;52.210;5.158;2023-02-10T13:01:00;103537.75;;;8.40;72.58
65329;BME280;51941;52.210;5.158;2023-02-10T13:03:34;103530.41;;;8.34;71.52
65329;BME280;51941;52.210;5.158;2023-02-10T13:06:19;103473.09;;;8.09;72.37
65329;BME280;51941;52.210;5.158;2023-02-10T13:08:50;103519.28;;;8.40;72.40
65329;BME280;51941;52.210;5.158;2023-02-10T13:11:23;103505.25;;;8.40;71.85
65329;BME280;51941;52.210;5.158;2023-02-10T13:13:54;103497.91;;;8.52;72.25